Time;durP1;ratioP1;P1;durP2;ratioP2;P2;SDS_P1;SDS_P2;PMS_P1;PMS_P2;Temp;Humidity;BMP_temperature;BMP_pressure;BME280_temperature;BME280_humidity;BME280_pressure;Samples;Min_cycle;Max_cycle;Signal;HPM_P1;HPM_P2
2022/10/08 00:01:22;;;;;;;11.17;5.83;;;13.70;91.70;;;;;;5010628;28;20196;-73
2022/10/08 00:03:52;;;;;;;12.03;6.90;;;13.60;91.70;;;;;;5009550;28;20201;-73
2022/10/08 00:06:21;;;;;;;11.03;6.37;;;13.60;91.70;;;;;;5009786;28;20212;-73
2022/10/08 00:08:52;;;;;;;14.00;7.13;;;13.60;91.80;;;;;;5007988;28;20227;-73
2022/10/08 00:11:21;;;;;;;9.00;5.70;;;13.50;91.80;;;;;;5009693;28;20218;-73
2022/10/08 00:13:49;;;;;;;8.87;5.60;;;13.50;91.80;;;;;;5009035;28;20311;-73
2022/10/08 00:16:18;;;;;;;9.17;5.40;;;13.50;91.80;;;;;;5009193;28;20682;-73
2022/10/08 00:18:48;;;;;;;8.57;5.37;;;13.50;91.80;;;;;;5010645;28;20227;-73
2022/10/08 00:21:19;;;;;;;8.13;5.60;;;13.50;92.20;;;;;;5007395;28;20207;-73
2022/10/08 00:23:49;;;;;;;7.97;4.83;;;13.50;91.90;;;;;;5010041;28;20203;-72
2022/10/08 00:26:22;;;;;;;9.33;5.57;;;13.50;91.90;;;;;;5009755;28;20286;-73
2022/10/08 00:28:51;;;;;;;7.57;4.90;;;13.50;91.90;;;;;;5010530;28;20303;-73
2022/10/08 00:31:21;;;;;;;10.33;5.70;;;13.40;91.90;;;;;;5009465;28;20783;-72
2022/10/08 00:33:49;;;;;;;9.90;5.87;;;13.40;92.00;;;;;;5009309;28;20209;-72
2022/10/08 00:36:17;;;;;;;10.30;5.00;;;13.40;92.00;;;;;;5007406;28;20309;-72
2022/10/08 00:38:44;;;;;;;11.67;6.07;;;13.30;92.10;;;;;;5009860;28;20205;-73
2022/10/08 00:41:18;;;;;;;10.27;6.50;;;13.30;92.10;;;;;;5009078;28;20225;-72
2022/10/08 00:43:46;;;;;;;9.27;6.10;;;13.30;92.20;;;;;;5008211;28;20194;-73
2022/10/08 00:46:21;;;;;;;11.80;7.30;;;13.30;92.30;;;;;;5007092;28;20205;-73
2022/10/08 00:48:50;;;;;;;11.43;6.67;;;13.30;92.30;;;;;;5010854;28;20221;-72
2022/10/08 00:51:17;;;;;;;13.10;7.30;;;13.30;92.40;;;;;;5007841;28;20221;-72
2022/10/08 00:53:45;;;;;;;15.03;7.93;;;13.30;92.40;;;;;;5008539;28;20211;-72
2022/10/08 00:56:13;;;;;;;14.43;7.40;;;13.30;92.50;;;;;;5009300;28;20255;-72
2022/10/08 00:58:43;;;;;;;14.70;7.83;;;13.20;92.60;;;;;;5008070;28;20206;-72
2022/10/08 01:01:10;;;;;;;13.03;7.13;;;13.10;92.70;;;;;;5009118;28;20532;-72
2022/10/08 01:03:37;;;;;;;12.10;7.10;;;13.10;92.80;;;;;;5009851;28;20200;-72
2022/10/08 01:06:12;;;;;;;16.57;8.53;;;13.00;92.80;;;;;;5008876;28;20235;-72
2022/10/08 01:08:47;;;;;;;11.23;6.47;;;13.00;92.90;;;;;;5008541;28;20243;-72
2022/10/08 01:11:27;;;;;;;7.27;4.97;;;13.00;92.90;;;;;;5006842;28;20261;-72
2022/10/08 01:14:04;;;;;;;8.37;5.40;;;13.10;92.90;;;;;;5006452;28;20196;-72
2022/10/08 01:16:37;;;;;;;8.70;5.30;;;13.10;92.90;;;;;;5007889;28;20195;-72
2022/10/08 01:19:22;;;;;;;11.10;6.40;;;13.00;92.90;;;;;;5008750;28;20214;-73
2022/10/08 01:21:59;;;;;;;10.83;7.27;;;13.00;93.00;;;;;;5005898;28;20788;-72
2022/10/08 01:27:25;;;;;;;13.03;7.60;;;13.00;93.30;;;;;;4975662;28;20209;-73
2022/10/08 01:29:53;;;;;;;12.37;6.83;;;12.90;93.40;;;;;;5007803;28;20216;-73
2022/10/08 01:32:37;;;;;;;11.20;6.40;;;12.90;93.50;;;;;;5009387;28;20195;-73
2022/10/08 01:35:09;;;;;;;12.50;7.07;;;12.90;93.60;;;;;;5008417;28;20230;-73
2022/10/08 01:37:40;;;;;;;12.80;7.60;;;12.90;93.70;;;;;;5007703;28;20195;-73
2022/10/08 01:40:11;;;;;;;13.03;7.40;;;12.90;93.70;;;;;;5008639;28;20203;-73
2022/10/08 01:42:41;;;;;;;12.97;6.93;;;12.80;93.60;;;;;;5008115;28;20335;-73
2022/10/08 01:45:14;;;;;;;10.23;6.33;;;12.80;93.70;;;;;;5007593;28;20198;-73
2022/10/08 01:47:45;;;;;;;8.47;5.63;;;12.80;93.70;;;;;;5006740;28;20204;-73
2022/10/08 01:50:16;;;;;;;10.50;5.80;;;12.80;93.70;;;;;;5006822;28;20203;-73
2022/10/08 01:52:47;;;;;;;6.10;4.63;;;12.80;93.60;;;;;;5007697;28;20216;-73
2022/10/08 01:55:20;;;;;;;11.37;5.47;;;12.90;93.60;;;;;;5007614;28;20207;-73
2022/10/08 01:57:50;;;;;;;10.97;6.30;;;12.90;93.50;;;;;;5007257;28;20205;-72
2022/10/08 02:00:17;;;;;;;8.20;5.80;;;12.90;93.50;;;;;;5021911;28;20765;-73
2022/10/08 02:02:45;;;;;;;10.47;6.27;;;12.80;93.40;;;;;;5008933;28;20663;-73
2022/10/08 02:05:12;;;;;;;11.23;6.90;;;12.90;93.50;;;;;;5008052;28;20231;-72
2022/10/08 02:07:41;;;;;;;9.20;6.00;;;12.80;93.40;;;;;;5008734;28;20212;-73
2022/10/08 02:10:11;;;;;;;6.97;5.37;;;12.80;93.40;;;;;;5008437;28;20288;-72
2022/10/08 02:12:40;;;;;;;7.03;4.47;;;12.90;93.40;;;;;;5005757;28;20207;-72
2022/10/08 02:15:14;;;;;;;9.00;5.60;;;12.90;93.40;;;;;;5008277;28;20667;-73
2022/10/08 02:17:51;;;;;;;6.53;4.90;;;12.90;93.30;;;;;;5007582;28;20568;-72
2022/10/08 02:20:21;;;;;;;6.93;4.27;;;12.90;93.20;;;;;;5005415;28;20676;-72
2022/10/08 02:22:57;;;;;;;5.00;3.93;;;12.90;93.20;;;;;;5008540;28;20634;-73
2022/10/08 02:25:31;;;;;;;5.20;4.07;;;12.90;93.20;;;;;;5007702;28;20282;-73
2022/10/08 02:28:07;;;;;;;7.50;4.60;;;12.90;93.20;;;;;;5008592;28;20192;-73
2022/10/08 02:30:40;;;;;;;11.80;5.77;;;12.90;93.10;;;;;;5007581;28;20191;-72
2022/10/08 02:33:14;;;;;;;12.67;5.97;;;12.80;93.10;;;;;;5012113;28;20197;-73
2022/10/08 02:35:47;;;;;;;8.47;4.80;;;12.80;93.10;;;;;;5010311;28;20215;-72
2022/10/08 02:38:19;;;;;;;7.33;5.40;;;12.70;93.10;;;;;;5009235;28;20204;-73
2022/10/08 02:40:54;;;;;;;7.80;4.77;;;12.80;93.10;;;;;;5009994;28;20196;-73
2022/10/08 02:43:24;;;;;;;7.77;5.10;;;12.70;93.10;;;;;;5010314;28;20203;-73
2022/10/08 02:45:59;;;;;;;6.97;4.93;;;12.80;93.20;;;;;;5012553;28;20807;-72
2022/10/08 02:48:30;;;;;;;13.13;6.50;;;12.70;93.10;;;;;;5012460;28;20192;-73
2022/10/08 02:51:01;;;;;;;6.53;5.00;;;12.70;93.10;;;;;;5008866;28;20286;-72
2022/10/08 02:53:29;;;;;;;7.20;4.57;;;12.70;93.10;;;;;;5011655;28;20560;-72
2022/10/08 02:56:07;;;;;;;7.07;4.57;;;12.70;93.00;;;;;;5012215;28;20197;-72
2022/10/08 02:58:34;;;;;;;4.83;3.67;;;12.70;93.10;;;;;;5009038;28;20198;-73
2022/10/08 03:01:09;;;;;;;6.93;4.00;;;12.70;93.10;;;;;;5010193;28;20200;-73
2022/10/08 03:03:42;;;;;;;4.40;3.63;;;12.60;93.00;;;;;;5010800;28;20677;-74
2022/10/08 03:06:11;;;;;;;7.53;5.53;;;12.60;93.00;;;;;;5008403;28;20253;-74
2022/10/08 03:08:45;;;;;;;9.17;5.00;;;12.60;93.00;;;;;;5010176;28;20215;-74
2022/10/08 03:11:13;;;;;;;6.80;4.43;;;12.60;93.10;;;;;;5009767;28;20191;-74
2022/10/08 03:13:45;;;;;;;7.37;4.80;;;12.60;93.10;;;;;;5011832;28;20230;-74
2022/10/08 03:16:17;;;;;;;7.60;4.83;;;12.50;93.00;;;;;;5011694;28;20196;-74
2022/10/08 03:18:46;;;;;;;8.50;5.50;;;12.50;93.10;;;;;;5011935;28;20191;-74
2022/10/08 03:21:15;;;;;;;8.27;4.53;;;12.50;93.10;;;;;;5011049;28;20202;-74
2022/10/08 03:23:42;;;;;;;8.80;5.00;;;12.60;93.20;;;;;;5010479;28;20578;-74
2022/10/08 03:26:09;;;;;;;6.33;4.50;;;12.50;93.20;;;;;;5010954;28;20199;-74
2022/10/08 03:28:36;;;;;;;6.57;4.20;;;12.50;93.20;;;;;;5012042;28;20234;-73
2022/10/08 03:31:05;;;;;;;6.63;4.40;;;12.50;93.20;;;;;;5011053;28;20234;-73
2022/10/08 03:33:33;;;;;;;5.10;4.03;;;12.50;93.20;;;;;;5011527;28;20205;-74
2022/10/08 03:36:01;;;;;;;4.83;3.83;;;12.50;93.20;;;;;;5009520;28;20218;-74
2022/10/08 03:38:28;;;;;;;4.53;3.63;;;12.50;93.20;;;;;;5009630;28;20211;-74
2022/10/08 03:40:57;;;;;;;4.17;3.20;;;12.50;93.20;;;;;;5007383;28;20192;-74
2022/10/08 03:43:31;;;;;;;6.13;4.23;;;12.60;93.20;;;;;;5009517;28;20196;-73
2022/10/08 03:45:58;;;;;;;8.17;4.07;;;12.50;93.20;;;;;;5008720;28;20223;-74
2022/10/08 03:48:25;;;;;;;10.17;4.70;;;12.50;93.20;;;;;;5011562;28;20202;-74
2022/10/08 03:50:56;;;;;;;10.63;5.97;;;12.60;93.20;;;;;;5007041;28;20219;-73
2022/10/08 03:53:24;;;;;;;6.17;4.37;;;12.60;93.20;;;;;;5010655;28;20187;-74
2022/10/08 03:55:51;;;;;;;6.50;4.43;;;12.60;93.20;;;;;;5008824;28;20278;-73
2022/10/08 03:58:19;;;;;;;6.10;3.83;;;12.60;93.20;;;;;;5009384;28;20655;-74
2022/10/08 04:00:56;;;;;;;4.00;3.20;;;12.60;93.20;;;;;;5011017;28;20199;-72
2022/10/08 04:03:23;;;;;;;3.90;3.30;;;12.60;93.20;;;;;;5010350;28;20191;-72
2022/10/08 04:05:50;;;;;;;6.03;4.10;;;12.60;93.20;;;;;;5009059;28;20232;-72
2022/10/08 04:08:19;;;;;;;5.93;4.00;;;12.60;93.20;;;;;;5010595;28;20294;-73
2022/10/08 04:10:47;;;;;;;5.63;3.70;;;12.60;93.20;;;;;;5010555;28;20698;-74
2022/10/08 04:13:15;;;;;;;4.87;3.30;;;12.50;93.20;;;;;;5009898;28;20203;-73
2022/10/08 04:15:43;;;;;;;6.77;3.97;;;12.60;93.20;;;;;;5010652;28;20223;-73
2022/10/08 04:18:11;;;;;;;6.03;4.00;;;12.60;93.30;;;;;;5009803;28;20195;-73
2022/10/08 04:20:39;;;;;;;10.70;5.70;;;12.60;93.30;;;;;;5006617;28;20359;-73
2022/10/08 04:23:06;;;;;;;12.23;6.30;;;12.60;93.30;;;;;;5010131;28;20191;-73
2022/10/08 04:25:35;;;;;;;13.13;6.73;;;12.50;93.30;;;;;;5010380;28;20668;-73
2022/10/08 04:28:03;;;;;;;11.67;6.00;;;12.50;93.40;;;;;;5009315;28;20195;-73
2022/10/08 04:30:31;;;;;;;8.93;5.63;;;12.40;93.40;;;;;;5009439;28;21012;-73
2022/10/08 04:32:58;;;;;;;8.47;5.13;;;12.40;93.40;;;;;;5010124;28;20259;-73
2022/10/08 04:35:26;;;;;;;8.23;4.80;;;12.40;93.50;;;;;;5009610;28;20624;-73
2022/10/08 04:37:53;;;;;;;7.03;4.57;;;12.40;93.50;;;;;;5009970;28;20587;-73
2022/10/08 04:40:20;;;;;;;11.20;6.60;;;12.40;93.50;;;;;;5009901;28;20202;-73
2022/10/08 04:42:51;;;;;;;10.93;6.00;;;12.40;93.50;;;;;;5008547;28;20187;-72
2022/10/08 04:45:19;;;;;;;12.03;6.63;;;12.40;93.60;;;;;;5009001;28;20200;-73
2022/10/08 04:47:46;;;;;;;14.40;6.60;;;12.30;93.60;;;;;;5007320;28;20199;-73
2022/10/08 04:50:13;;;;;;;11.47;6.87;;;12.30;93.70;;;;;;5009700;28;20374;-73
2022/10/08 04:52:40;;;;;;;8.23;5.83;;;12.30;93.70;;;;;;5008559;28;20200;-73
2022/10/08 04:55:09;;;;;;;9.30;5.73;;;12.30;93.80;;;;;;5007266;28;20203;-73
2022/10/08 04:57:36;;;;;;;9.87;5.90;;;12.30;93.90;;;;;;5010301;28;20249;-72
2022/10/08 05:00:06;;;;;;;10.93;6.30;;;12.30;94.00;;;;;;5009166;28;20199;-73
2022/10/08 05:02:33;;;;;;;12.37;6.73;;;12.30;94.00;;;;;;5009101;28;20202;-73
2022/10/08 05:05:01;;;;;;;13.27;7.03;;;12.20;94.00;;;;;;5009322;28;20326;-72
2022/10/08 05:07:29;;;;;;;16.43;7.50;;;12.20;94.10;;;;;;5008311;28;20204;-72
2022/10/08 05:09:56;;;;;;;14.50;6.57;;;12.20;94.20;;;;;;5006640;28;20303;-72
2022/10/08 05:12:23;;;;;;;10.70;6.73;;;12.20;94.20;;;;;;5007135;28;20198;-73
2022/10/08 05:14:50;;;;;;;12.67;6.07;;;12.20;94.30;;;;;;5009488;28;20206;-73
2022/10/08 05:17:19;;;;;;;9.17;5.23;;;12.20;94.40;;;;;;5007779;28;20200;-73
2022/10/08 05:19:46;;;;;;;11.97;6.60;;;12.30;94.40;;;;;;5009822;28;20189;-73
2022/10/08 05:22:13;;;;;;;9.63;5.87;;;12.30;94.40;;;;;;5008693;28;20572;-73
2022/10/08 05:24:40;;;;;;;10.67;6.30;;;12.20;94.40;;;;;;5005769;28;20548;-72
2022/10/08 05:27:07;;;;;;;8.70;5.70;;;12.20;94.50;;;;;;5009254;28;20659;-73
2022/10/08 05:29:35;;;;;;;11.37;6.80;;;12.20;94.50;;;;;;5008995;28;20221;-73
2022/10/08 05:32:02;;;;;;;10.50;5.90;;;12.20;94.60;;;;;;5007274;28;20202;-73
2022/10/08 05:34:30;;;;;;;11.20;7.30;;;12.20;94.70;;;;;;5010121;28;20849;-73
2022/10/08 05:36:57;;;;;;;9.67;6.50;;;12.20;94.80;;;;;;5007355;28;20659;-73
2022/10/08 05:39:25;;;;;;;10.37;6.17;;;12.20;95.00;;;;;;5007147;28;20199;-73
2022/10/08 05:41:53;;;;;;;11.53;7.00;;;12.20;95.00;;;;;;5007005;28;20594;-73
2022/10/08 05:44:20;;;;;;;12.67;6.17;;;12.20;95.10;;;;;;5006843;28;20542;-73
2022/10/08 05:46:47;;;;;;;7.87;5.37;;;12.20;95.20;;;;;;5006402;28;20206;-73
2022/10/08 05:49:19;;;;;;;10.53;6.23;;;12.30;95.30;;;;;;5008963;28;20198;-73
2022/10/08 05:51:47;;;;;;;10.33;6.33;;;12.30;95.30;;;;;;5007412;28;20214;-72
2022/10/08 05:54:15;;;;;;;9.27;6.47;;;12.30;95.50;;;;;;5007256;28;20199;-73
2022/10/08 05:56:42;;;;;;;10.27;6.17;;;12.30;95.50;;;;;;5008876;28;20195;-72
2022/10/08 05:59:15;;;;;;;10.67;5.97;;;12.30;95.60;;;;;;5008913;28;20207;-72
2022/10/08 06:01:42;;;;;;;12.07;6.70;;;12.40;95.70;;;;;;5008138;28;20207;-73
2022/10/08 06:04:11;;;;;;;10.63;6.53;;;12.40;95.70;;;;;;5008680;28;20234;-73
2022/10/08 06:06:40;;;;;;;15.27;7.67;;;12.40;95.80;;;;;;5008341;28;20198;-73
2022/10/08 06:09:12;;;;;;;8.60;5.97;;;12.40;96.00;;;;;;5007801;28;20198;-73
2022/10/08 06:11:39;;;;;;;10.83;6.80;;;12.40;96.10;;;;;;5007078;28;20621;-72
2022/10/08 06:14:07;;;;;;;11.17;6.07;;;12.40;96.10;;;;;;5007850;28;20659;-72
2022/10/08 06:16:35;;;;;;;8.07;5.30;;;12.40;96.10;;;;;;5007765;28;20201;-73
2022/10/08 06:19:03;;;;;;;8.00;5.33;;;12.40;96.20;;;;;;5008165;28;20552;-74
2022/10/08 06:21:34;;;;;;;12.83;6.80;;;12.50;96.20;;;;;;5007279;28;20732;-73
2022/10/08 06:24:04;;;;;;;9.23;5.73;;;12.60;96.30;;;;;;5008639;28;20287;-73
2022/10/08 06:26:35;;;;;;;6.73;5.23;;;12.60;96.40;;;;;;5007787;28;20206;-74
2022/10/08 06:29:04;;;;;;;8.07;4.60;;;12.60;96.30;;;;;;5009558;28;20183;-73
2022/10/08 06:31:35;;;;;;;7.70;4.90;;;12.70;96.30;;;;;;5008935;28;20327;-74
2022/10/08 06:34:05;;;;;;;6.27;4.53;;;12.80;96.30;;;;;;5009365;28;20191;-74
2022/10/08 06:36:35;;;;;;;5.17;3.73;;;12.80;96.20;;;;;;5008393;28;20195;-74
2022/10/08 06:39:05;;;;;;;6.47;3.77;;;12.90;96.20;;;;;;5008690;28;20192;-74
2022/10/08 06:41:34;;;;;;;8.57;5.70;;;12.90;96.10;;;;;;5007179;28;20191;-73
2022/10/08 06:44:01;;;;;;;9.70;5.80;;;13.00;96.30;;;;;;5005646;28;20191;-73
2022/10/08 06:46:30;;;;;;;13.43;6.37;;;13.00;96.40;;;;;;5008145;28;20208;-73
2022/10/08 06:48:57;;;;;;;10.40;6.30;;;13.00;96.50;;;;;;5008507;28;20207;-73
2022/10/08 06:51:24;;;;;;;12.13;6.40;;;13.00;96.70;;;;;;5006912;28;20700;-74
2022/10/08 06:53:55;;;;;;;9.63;6.10;;;13.00;96.90;;;;;;5007481;28;20199;-72
2022/10/08 06:56:24;;;;;;;9.87;4.90;;;13.00;97.00;;;;;;5007090;28;20188;-71
2022/10/08 06:58:53;;;;;;;9.30;5.00;;;13.10;97.10;;;;;;5008265;28;20664;-72
2022/10/08 07:01:22;;;;;;;4.53;4.00;;;13.10;97.10;;;;;;5006653;28;20199;-72
2022/10/08 07:03:50;;;;;;;5.83;3.90;;;13.20;97.20;;;;;;5008294;28;20208;-72
2022/10/08 07:06:18;;;;;;;9.47;5.17;;;13.20;97.20;;;;;;5003675;28;20203;-72
2022/10/08 07:08:45;;;;;;;6.77;5.00;;;13.20;97.20;;;;;;5007799;28;20206;-72
2022/10/08 07:11:15;;;;;;;6.80;4.87;;;13.30;97.40;;;;;;5007598;28;20215;-72
2022/10/08 07:13:42;;;;;;;5.77;4.57;;;13.30;97.50;;;;;;5007865;28;20199;-72
2022/10/08 07:16:13;;;;;;;6.90;4.40;;;13.30;97.50;;;;;;5008294;28;20204;-72
2022/10/08 07:18:41;;;;;;;7.07;5.23;;;13.40;97.60;;;;;;5008195;28;20204;-72
2022/10/08 07:21:11;;;;;;;9.93;5.73;;;13.40;97.80;;;;;;5011094;28;20777;-72
2022/10/08 07:23:38;;;;;;;9.80;5.60;;;13.50;98.00;;;;;;5009662;28;20194;-72
2022/10/08 07:26:08;;;;;;;7.97;5.00;;;13.50;98.20;;;;;;5009822;28;20572;-72
2022/10/08 07:28:38;;;;;;;11.70;6.50;;;13.50;98.30;;;;;;5010363;28;20314;-73
2022/10/08 07:31:06;;;;;;;12.50;6.90;;;13.60;98.60;;;;;;5009168;28;20637;-72
2022/10/08 07:33:35;;;;;;;10.03;5.83;;;13.70;98.90;;;;;;5011814;28;20200;-73
2022/10/08 07:36:09;;;;;;;6.77;5.33;;;13.70;99.20;;;;;;5010855;28;20555;-72
2022/10/08 07:38:37;;;;;;;7.07;4.57;;;13.70;99.50;;;;;;5010725;28;20667;-72
2022/10/08 07:41:04;;;;;;;7.00;4.03;;;13.80;99.50;;;;;;5010061;28;20669;-72
2022/10/08 07:43:32;;;;;;;5.63;3.93;;;13.90;99.60;;;;;;5007719;28;20210;-72
2022/10/08 07:45:59;;;;;;;7.20;4.40;;;13.90;99.60;;;;;;5009834;28;20200;-71
2022/10/08 07:48:28;;;;;;;4.17;3.70;;;14.00;99.80;;;;;;5011271;28;20208;-72
2022/10/08 07:50:56;;;;;;;5.53;3.60;;;14.00;99.80;;;;;;5010621;28;20213;-72
2022/10/08 07:53:23;;;;;;;3.47;3.03;;;14.10;99.80;;;;;;5011116;28;20207;-73
2022/10/08 07:55:50;;;;;;;5.47;3.57;;;14.20;99.80;;;;;;5010786;28;20205;-72
2022/10/08 07:58:17;;;;;;;5.60;3.87;;;14.20;99.90;;;;;;5011025;28;20677;-72
2022/10/08 08:00:45;;;;;;;4.30;3.37;;;14.20;99.90;;;;;;5010521;28;20200;-72
2022/10/08 08:03:14;;;;;;;4.37;3.27;;;14.30;99.90;;;;;;5010996;28;20201;-72
2022/10/08 08:05:41;;;;;;;4.20;3.07;;;14.40;99.90;;;;;;5008510;28;20301;-72
2022/10/08 08:08:10;;;;;;;5.27;3.80;;;14.50;99.90;;;;;;5008849;28;20207;-72
2022/10/08 08:10:38;;;;;;;4.13;3.47;;;14.60;99.90;;;;;;5009817;28;20256;-71
2022/10/08 08:13:05;;;;;;;4.87;3.30;;;14.70;99.90;;;;;;5010859;28;20198;-72
2022/10/08 08:15:32;;;;;;;5.80;2.97;;;14.70;99.90;;;;;;5008422;28;20213;-72
2022/10/08 08:18:02;;;;;;;2.43;2.23;;;14.80;99.90;;;;;;5010928;28;20687;-72
2022/10/08 08:20:29;;;;;;;3.23;2.87;;;14.90;99.90;;;;;;5009875;28;20195;-72
2022/10/08 08:22:56;;;;;;;3.40;2.83;;;14.90;99.90;;;;;;5008961;28;20222;-72
2022/10/08 08:25:26;;;;;;;2.97;2.60;;;15.00;99.90;;;;;;5008551;28;20191;-73
2022/10/08 08:27:53;;;;;;;2.67;2.47;;;15.00;99.90;;;;;;5008782;28;20624;-73
2022/10/08 08:30:20;;;;;;;3.03;2.50;;;15.10;99.80;;;;;;5009397;28;20237;-73
2022/10/08 08:32:47;;;;;;;3.33;2.83;;;15.10;99.60;;;;;;5010941;28;20544;-72
2022/10/08 08:35:15;;;;;;;2.30;2.00;;;15.20;99.60;;;;;;5006044;28;20203;-72
2022/10/08 08:37:42;;;;;;;4.57;2.27;;;15.20;99.30;;;;;;5010006;28;20689;-72
2022/10/08 08:40:10;;;;;;;3.27;2.00;;;15.20;99.10;;;;;;5008151;28;20203;-73
2022/10/08 08:42:51;;;;;;;1.80;1.70;;;15.30;98.90;;;;;;5008872;28;20230;-73
2022/10/08 08:45:25;;;;;;;2.70;2.20;;;15.30;98.80;;;;;;5006594;28;20191;-73
2022/10/08 08:48:04;;;;;;;2.17;1.80;;;15.40;98.70;;;;;;5008836;28;20561;-74
2022/10/08 08:50:35;;;;;;;3.13;2.13;;;15.40;98.50;;;;;;5009770;28;20207;-73
2022/10/08 08:53:03;;;;;;;2.00;1.90;;;15.50;98.20;;;;;;5009046;28;20614;-73
2022/10/08 08:55:36;;;;;;;2.00;1.80;;;15.60;98.10;;;;;;5008393;28;20245;-73
2022/10/08 08:58:15;;;;;;;3.07;2.20;;;15.70;98.10;;;;;;5010374;28;20191;-73
2022/10/08 09:00:49;;;;;;;2.80;2.60;;;15.70;97.90;;;;;;5008852;28;20191;-73
2022/10/08 09:03:21;;;;;;;2.73;1.90;;;15.70;97.80;;;;;;5009794;28;20247;-73
2022/10/08 09:05:55;;;;;;;2.20;2.00;;;15.80;97.80;;;;;;5009855;28;20718;-73
2022/10/08 09:08:28;;;;;;;2.27;2.07;;;15.80;97.70;;;;;;5007820;28;20196;-73
2022/10/08 09:10:58;;;;;;;3.10;2.10;;;15.90;97.70;;;;;;5008994;28;20647;-73
2022/10/08 09:13:30;;;;;;;2.97;2.03;;;15.90;97.60;;;;;;5009520;28;20199;-73
2022/10/08 09:15:57;;;;;;;3.13;1.80;;;15.90;97.50;;;;;;5007932;28;20194;-73
2022/10/08 09:18:24;;;;;;;5.93;2.17;;;15.90;97.50;;;;;;5009270;28;20214;-73
2022/10/08 09:20:52;;;;;;;5.27;2.40;;;15.90;97.40;;;;;;5007448;28;20188;-73
2022/10/08 09:23:21;;;;;;;2.67;2.30;;;15.90;97.30;;;;;;5007678;28;20694;-73
2022/10/08 09:25:54;;;;;;;2.33;2.13;;;15.90;97.30;;;;;;5008679;28;20200;-73
2022/10/08 09:28:44;;;;;;;2.37;1.90;;;15.90;97.30;;;;;;5006473;28;20191;-73
2022/10/08 09:31:24;;;;;;;2.73;1.97;;;15.90;97.20;;;;;;5008940;28;20709;-73
2022/10/08 09:33:59;;;;;;;2.27;1.83;;;15.90;97.20;;;;;;5006864;28;20199;-73
2022/10/08 09:36:34;;;;;;;3.70;1.83;;;16.00;97.20;;;;;;5007143;28;20206;-72
2022/10/08 09:39:03;;;;;;;1.93;1.83;;;16.00;97.20;;;;;;5006327;28;20196;-74
2022/10/08 09:41:30;;;;;;;1.87;1.67;;;16.10;97.20;;;;;;5004177;28;20431;-73
2022/10/08 09:44:17;;;;;;;1.50;1.40;;;16.10;97.10;;;;;;5007432;28;20540;-73
2022/10/08 09:46:45;;;;;;;2.20;1.60;;;16.10;97.10;;;;;;5012182;28;20194;-73
2022/10/08 09:49:29;;;;;;;3.23;2.00;;;16.20;97.10;;;;;;5008023;28;20210;-74
2022/10/08 09:52:00;;;;;;;2.23;1.80;;;16.30;97.10;;;;;;5009193;28;20207;-74
2022/10/08 09:54:30;;;;;;;2.70;1.80;;;16.40;96.90;;;;;;5005053;28;20191;-73
2022/10/08 09:56:59;;;;;;;2.07;1.87;;;16.50;96.80;;;;;;5008929;28;20202;-73
2022/10/08 09:59:30;;;;;;;1.90;1.47;;;16.70;96.80;;;;;;5009321;28;20199;-73
2022/10/08 10:01:58;;;;;;;2.40;2.10;;;17.30;96.60;;;;;;5008496;28;20678;-73
2022/10/08 10:04:33;;;;;;;1.90;1.60;;;17.70;96.00;;;;;;5007182;28;20231;-73
2022/10/08 10:07:01;;;;;;;3.60;1.70;;;18.30;95.40;;;;;;5007376;28;20193;-73
2022/10/08 10:09:40;;;;;;;1.70;1.60;;;18.50;94.80;;;;;;5008311;28;20660;-74
2022/10/08 10:12:17;;;;;;;4.60;2.17;;;18.50;94.50;;;;;;5006295;28;20212;-73
2022/10/08 10:14:51;;;;;;;2.80;2.20;;;18.30;94.40;;;;;;5009299;28;20329;-73
2022/10/08 10:17:25;;;;;;;3.37;2.30;;;18.20;94.60;;;;;;5008628;28;20574;-73
2022/10/08 10:19:58;;;;;;;5.03;3.03;;;18.40;94.70;;;;;;5006633;28;20199;-73
2022/10/08 10:22:29;;;;;;;3.55;2.70;;;18.70;94.60;;;;;;5006921;28;20198;-73
2022/10/08 10:25:04;;;;;;;7.68;2.90;;;19.50;94.20;;;;;;5007174;28;20203;-73
2022/10/08 10:27:35;;;;;;;3.08;2.22;;;19.90;93.20;;;;;;5008517;28;20198;-73
2022/10/08 10:30:18;;;;;;;2.83;2.35;;;20.10;92.90;;;;;;5005691;28;20203;-72
2022/10/08 10:32:50;;;;;;;2.08;1.88;;;20.10;92.70;;;;;;5006012;28;20207;-73
2022/10/08 10:35:23;;;;;;;5.93;2.53;;;19.90;92.70;;;;;;5005958;28;20210;-73
2022/10/08 10:37:55;;;;;;;2.03;1.85;;;19.60;92.60;;;;;;5008764;28;20620;-73
2022/10/08 10:40:35;;;;;;;2.10;1.95;;;19.40;92.70;;;;;;5004826;28;20253;-73
2022/10/08 10:43:17;;;;;;;2.10;1.90;;;19.20;92.80;;;;;;5005411;28;20570;-74
2022/10/08 10:45:50;;;;;;;2.03;1.85;;;19.10;92.80;;;;;;5007156;28;20207;-73
2022/10/08 10:48:17;;;;;;;2.40;2.20;;;18.90;92.70;;;;;;5005607;28;20284;-73
2022/10/08 10:50:57;;;;;;;2.28;2.05;;;18.80;92.80;;;;;;5008037;28;20203;-73
2022/10/08 10:53:32;;;;;;;1.55;1.42;;;18.70;92.90;;;;;;5008983;28;20194;-73
2022/10/08 10:56:10;;;;;;;3.97;1.73;;;18.60;93.00;;;;;;5010412;28;20195;-73
2022/10/08 10:58:57;;;;;;;4.53;2.50;;;18.50;93.00;;;;;;5008408;28;20705;-73
2022/10/08 11:01:35;;;;;;;1.75;1.63;;;18.50;93.00;;;;;;4998036;28;20661;-73
2022/10/08 11:04:08;;;;;;;1.60;1.50;;;18.40;93.00;;;;;;5010713;28;20195;-73
2022/10/08 11:06:59;;;;;;;1.73;1.55;;;18.40;93.00;;;;;;5011394;28;20500;-73
2022/10/08 11:09:37;;;;;;;1.52;1.42;;;18.30;93.00;;;;;;5009137;28;20198;-73
2022/10/08 11:12:24;;;;;;;1.73;1.63;;;18.30;93.10;;;;;;5009950;28;20217;-73
2022/10/08 11:15:01;;;;;;;1.40;1.30;;;18.20;93.10;;;;;;5010448;28;20297;-73
2022/10/08 11:17:40;;;;;;;1.55;1.45;;;18.20;93.20;;;;;;5010608;28;20204;-72
2022/10/08 11:20:36;;;;;;;1.90;1.48;;;18.20;93.30;;;;;;5009361;28;20253;-72
2022/10/08 11:23:12;;;;;;;2.70;1.50;;;18.20;93.30;;;;;;5010615;28;20203;-72
2022/10/08 11:25:46;;;;;;;1.55;1.27;;;18.10;93.30;;;;;;5009817;28;20212;-72
2022/10/08 11:28:23;;;;;;;1.65;1.40;;;18.10;93.40;;;;;;5011345;28;20196;-73
2022/10/08 11:31:04;;;;;;;3.38;1.55;;;18.10;93.50;;;;;;5009327;28;20214;-73
2022/10/08 11:33:35;;;;;;;1.65;1.55;;;18.10;93.50;;;;;;5011689;28;20202;-73
2022/10/08 11:36:21;;;;;;;4.70;1.92;;;18.10;93.60;;;;;;5010969;28;20654;-72
2022/10/08 11:38:54;;;;;;;1.60;1.50;;;18.10;93.60;;;;;;5010289;28;20202;-72
2022/10/08 11:41:27;;;;;;;1.80;1.45;;;18.10;93.50;;;;;;5007873;28;20202;-73
2022/10/08 11:43:57;;;;;;;2.20;1.60;;;18.10;93.50;;;;;;5011305;28;20194;-74
2022/10/08 11:46:30;;;;;;;2.90;1.80;;;18.10;93.40;;;;;;5011179;28;20194;-73
2022/10/08 11:49:02;;;;;;;3.90;1.90;;;18.10;93.40;;;;;;5010142;28;20292;-74
2022/10/08 11:51:37;;;;;;;4.18;2.25;;;18.10;93.40;;;;;;5010528;28;20709;-73
2022/10/08 11:54:12;;;;;;;6.10;2.47;;;18.00;93.30;;;;;;5011022;28;20271;-74
2022/10/08 11:56:42;;;;;;;3.60;2.33;;;18.00;93.20;;;;;;5010116;28;21019;-73
2022/10/08 11:59:27;;;;;;;3.07;2.30;;;18.00;93.20;;;;;;5009553;28;20205;-73
2022/10/08 12:01:57;;;;;;;2.33;1.90;;;18.10;93.10;;;;;;5009934;28;20253;-75
2022/10/08 12:04:33;;;;;;;2.25;1.77;;;18.10;93.10;;;;;;5010846;28;20233;-74
2022/10/08 12:07:20;;;;;;;2.53;2.00;;;18.00;93.00;;;;;;5009947;28;20637;-74
2022/10/08 12:10:08;;;;;;;2.00;1.60;;;18.00;93.00;;;;;;5009653;28;20278;-73
2022/10/08 12:13:02;;;;;;;5.55;2.35;;;18.10;93.10;;;;;;5008482;28;20541;-74
2022/10/08 12:15:54;;;;;;;3.33;2.22;;;18.00;92.90;;;;;;5009920;28;20187;-73
2022/10/08 12:18:43;;;;;;;3.92;1.80;;;18.00;92.90;;;;;;5009956;28;20532;-73
2022/10/08 12:21:48;;;;;;;4.35;2.53;;;18.00;92.90;;;;;;5001127;28;20210;-74
2022/10/08 12:24:54;;;;;;;4.45;2.33;;;18.00;92.80;;;;;;5011236;28;20199;-74
2022/10/08 12:27:40;;;;;;;2.50;2.07;;;17.90;92.70;;;;;;4997231;28;20736;-73
2022/10/08 12:30:11;;;;;;;2.50;1.80;;;17.90;92.70;;;;;;5007723;28;20243;-73
2022/10/08 12:32:56;;;;;;;1.95;1.75;;;18.00;92.80;;;;;;5009915;28;20614;-73
2022/10/08 12:35:26;;;;;;;2.55;1.90;;;18.00;92.70;;;;;;5007340;28;20321;-73
2022/10/08 12:38:19;;;;;;;4.70;1.70;;;18.00;92.70;;;;;;5010283;28;20649;-73
2022/10/08 12:40:54;;;;;;;2.80;2.25;;;18.00;92.70;;;;;;5008357;28;20200;-73
2022/10/08 12:43:31;;;;;;;3.47;2.50;;;18.00;92.80;;;;;;5009868;28;20191;-73
2022/10/08 12:46:06;;;;;;;4.93;2.75;;;18.20;92.80;;;;;;5006815;28;20199;-73
2022/10/08 12:48:42;;;;;;;3.97;2.20;;;18.50;92.10;;;;;;5006985;28;20202;-72
2022/10/08 12:51:21;;;;;;;2.15;1.90;;;18.70;91.50;;;;;;5009334;28;20614;-73
2022/10/08 12:53:49;;;;;;;3.83;2.13;;;19.10;91.10;;;;;;5010014;28;20214;-74
2022/10/08 12:56:23;;;;;;;7.15;2.30;;;19.30;90.60;;;;;;5010140;28;20219;-73
2022/10/08 12:58:51;;;;;;;2.92;2.10;;;19.30;90.30;;;;;;5006640;28;20230;-73
2022/10/08 13:01:20;;;;;;;4.18;1.90;;;19.40;90.20;;;;;;5010050;28;20591;-73
2022/10/08 13:03:47;;;;;;;6.25;1.98;;;19.40;89.90;;;;;;5008687;28;20568;-73
2022/10/08 13:06:17;;;;;;;7.63;2.63;;;19.70;89.30;;;;;;5009268;28;20219;-73
2022/10/08 13:08:44;;;;;;;3.40;2.38;;;19.90;87.70;;;;;;5008972;28;20200;-73
2022/10/08 13:11:14;;;;;;;4.57;2.25;;;19.90;86.60;;;;;;5007819;28;20214;-73